Time;durP1;ratioP1;P1;durP2;ratioP2;P2;SDS_P1;SDS_P2;PMS_P1;PMS_P2;Temp;Humidity;BMP_temperature;BMP_pressure;BME280_temperature;BME280_humidity;BME280_pressure;Samples;Min_cycle;Max_cycle;Signal;HPM_P1;HPM_P2
2024/04/22 00:00:44;;;;;;;13.15;0.65;;;;;;;;;;5303446;26;20048;-59
2024/04/22 00:03:11;;;;;;;7.97;0.50;;;;;;;;;;5277371;26;20001;-60
2024/04/22 00:05:38;;;;;;;5.07;0.30;;;;;;;;;;5303109;26;20005;-62
2024/04/22 00:08:05;;;;;;;1.17;0.20;;;;;;;;;;5304489;26;20010;-57
2024/04/22 00:10:33;;;;;;;2.33;0.30;;;;;;;;;;5305921;26;20000;-57
2024/04/22 00:13:00;;;;;;;0.20;0.10;;;;;;;;;;5308790;26;20023;-56
2024/04/22 00:15:27;;;;;;;1.55;0.10;;;;;;;;;;5305077;26;20011;-60
2024/04/22 00:17:53;;;;;;;1.45;0.17;;;;;;;;;;5304754;26;20059;-60
2024/04/22 00:20:20;;;;;;;3.05;0.20;;;;;;;;;;5305669;26;20399;-58
2024/04/22 00:22:46;;;;;;;0.43;0.10;;;;;;;;;;5303879;26;20045;-61
2024/04/22 00:25:13;;;;;;;3.33;0.28;;;;;;;;;;5306419;26;20219;-58
2024/04/22 00:27:40;;;;;;;3.38;0.20;;;;;;;;;;5305456;26;20020;-58
2024/04/22 00:30:07;;;;;;;2.15;0.20;;;;;;;;;;5306132;26;20028;-60
2024/04/22 00:32:33;;;;;;;1.42;0.20;;;;;;;;;;5308384;26;20067;-57
2024/04/22 00:35:00;;;;;;;4.80;0.32;;;;;;;;;;5309806;26;20017;-61
2024/04/22 00:37:27;;;;;;;0.50;0.30;;;;;;;;;;5310381;26;20005;-59
2024/04/22 00:39:54;;;;;;;1.45;0.10;;;;;;;;;;5305191;26;20037;-61
2024/04/22 00:42:20;;;;;;;5.00;0.20;;;;;;;;;;5308460;26;20476;-63
2024/04/22 00:44:47;;;;;;;4.38;0.40;;;;;;;;;;5305567;26;22620;-61
2024/04/22 00:47:13;;;;;;;3.50;0.57;;;;;;;;;;5310946;26;20693;-62
2024/04/22 00:49:40;;;;;;;6.40;0.22;;;;;;;;;;5295855;26;20105;-59
2024/04/22 00:52:07;;;;;;;1.35;0.10;;;;;;;;;;5305171;26;20016;-56
2024/04/22 00:54:35;;;;;;;1.15;0.30;;;;;;;;;;5306169;26;20129;-59
2024/04/22 00:57:02;;;;;;;0.52;0.20;;;;;;;;;;5305199;26;20097;-57
2024/04/22 00:59:29;;;;;;;5.30;0.50;;;;;;;;;;5302500;26;20001;-62
2024/04/22 01:01:56;;;;;;;5.22;0.30;;;;;;;;;;5307450;26;20008;-60
2024/04/22 01:04:22;;;;;;;2.30;0.38;;;;;;;;;;5245644;26;20615;-63
2024/04/22 01:06:49;;;;;;;1.92;0.20;;;;;;;;;;5308730;26;20020;-57
2024/04/22 01:09:15;;;;;;;0.88;0.13;;;;;;;;;;5307295;26;20481;-62
2024/04/22 01:11:42;;;;;;;5.22;0.22;;;;;;;;;;5306509;26;20009;-63
2024/04/22 01:14:09;;;;;;;1.48;0.08;;;;;;;;;;5306492;26;20130;-57
2024/04/22 01:16:35;;;;;;;0.93;0.10;;;;;;;;;;5308541;26;20042;-57
2024/04/22 01:19:02;;;;;;;0.98;0.10;;;;;;;;;;5303324;26;20084;-60
2024/04/22 01:21:29;;;;;;;2.35;0.20;;;;;;;;;;5305714;26;20027;-58
2024/04/22 01:23:56;;;;;;;0.80;0.20;;;;;;;;;;5308812;26;20134;-58
2024/04/22 01:26:25;;;;;;;0.60;0.10;;;;;;;;;;5307434;26;20140;-60
2024/04/22 01:28:52;;;;;;;2.58;0.28;;;;;;;;;;5308184;26;20423;-59
2024/04/22 01:31:18;;;;;;;3.97;1.75;;;;;;;;;;5307299;26;20017;-56
2024/04/22 01:33:45;;;;;;;0.80;0.00;;;;;;;;;;5303764;26;20013;-60
2024/04/22 01:36:12;;;;;;;2.30;0.20;;;;;;;;;;5309307;26;20006;-61
2024/04/22 01:38:38;;;;;;;0.10;0.10;;;;;;;;;;5306072;26;20012;-58
2024/04/22 01:41:05;;;;;;;0.10;0.10;;;;;;;;;;5305829;26;20005;-59
2024/04/22 01:43:31;;;;;;;1.55;0.20;;;;;;;;;;5304965;26;20009;-61
2024/04/22 01:45:58;;;;;;;0.40;0.10;;;;;;;;;;5309138;26;20083;-61
2024/04/22 01:48:25;;;;;;;3.22;0.20;;;;;;;;;;5307963;26;20346;-59
2024/04/22 01:50:51;;;;;;;0.10;0.10;;;;;;;;;;5304645;26;20035;-59
2024/04/22 01:53:18;;;;;;;2.40;0.15;;;;;;;;;;5307529;26;20021;-60
2024/04/22 01:55:44;;;;;;;0.43;0.10;;;;;;;;;;5304123;26;20020;-59
2024/04/22 01:58:11;;;;;;;4.68;0.20;;;;;;;;;;5295333;26;19997;-61
2024/04/22 02:00:37;;;;;;;0.20;0.20;;;;;;;;;;5305090;26;20016;-62
2024/04/22 02:03:04;;;;;;;3.53;0.20;;;;;;;;;;5304631;26;20007;-61
2024/04/22 02:05:31;;;;;;;1.85;0.10;;;;;;;;;;5307937;26;20012;-61
2024/04/22 02:07:57;;;;;;;1.13;0.22;;;;;;;;;;5306286;26;21209;-60
2024/04/22 02:10:24;;;;;;;0.38;0.22;;;;;;;;;;5303755;26;20008;-59
2024/04/22 02:12:51;;;;;;;0.22;0.10;;;;;;;;;;5299001;26;20523;-61
2024/04/22 02:15:18;;;;;;;1.48;0.10;;;;;;;;;;5307610;26;20041;-57
2024/04/22 02:17:44;;;;;;;0.25;0.10;;;;;;;;;;5307673;26;20004;-56
2024/04/22 02:20:11;;;;;;;6.43;0.17;;;;;;;;;;5303853;26;20012;-59
2024/04/22 02:22:39;;;;;;;0.20;0.10;;;;;;;;;;5304291;26;20091;-59
2024/04/22 02:25:06;;;;;;;1.15;0.15;;;;;;;;;;5310167;26;20000;-58
2024/04/22 02:27:32;;;;;;;0.85;0.20;;;;;;;;;;5307264;26;20017;-62
2024/04/22 02:29:59;;;;;;;0.93;0.22;;;;;;;;;;5296403;26;20013;-60
2024/04/22 02:32:28;;;;;;;0.00;0.00;;;;;;;;;;5302177;26;20089;-58
2024/04/22 02:34:54;;;;;;;0.25;0.13;;;;;;;;;;5306089;26;20017;-58
2024/04/22 02:37:21;;;;;;;1.17;0.20;;;;;;;;;;5306244;26;20031;-60
2024/04/22 02:39:47;;;;;;;1.92;0.22;;;;;;;;;;5306725;26;20310;-58
2024/04/22 02:42:14;;;;;;;0.38;0.22;;;;;;;;;;5306182;26;20004;-60
2024/04/22 02:44:40;;;;;;;1.08;0.17;;;;;;;;;;5306765;26;20004;-59
2024/04/22 02:47:07;;;;;;;1.05;0.20;;;;;;;;;;5306473;26;20072;-59
2024/04/22 02:49:34;;;;;;;0.08;0.03;;;;;;;;;;5304817;26;20076;-58
2024/04/22 02:52:00;;;;;;;0.05;0.05;;;;;;;;;;5294906;26;20020;-58
2024/04/22 02:54:28;;;;;;;0.40;0.13;;;;;;;;;;5289543;26;20017;-59
2024/04/22 02:56:58;;;;;;;1.20;0.10;;;;;;;;;;5310684;26;20017;-60
2024/04/22 02:59:24;;;;;;;0.10;0.00;;;;;;;;;;5308062;26;20028;-60
2024/04/22 03:01:51;;;;;;;2.30;0.20;;;;;;;;;;5298027;26;20092;-56
2024/04/22 03:04:18;;;;;;;0.10;0.10;;;;;;;;;;5310333;26;20005;-59
2024/04/22 03:06:46;;;;;;;0.57;0.10;;;;;;;;;;5311705;26;20001;-59
2024/04/22 03:09:13;;;;;;;0.20;0.20;;;;;;;;;;5308726;26;21036;-58
2024/04/22 03:11:39;;;;;;;0.10;0.10;;;;;;;;;;5308602;26;20017;-57
2024/04/22 03:14:06;;;;;;;1.35;0.20;;;;;;;;;;5307755;26;20079;-62
2024/04/22 03:16:32;;;;;;;0.22;0.10;;;;;;;;;;5308539;26;20002;-55
2024/04/22 03:18:59;;;;;;;0.55;0.28;;;;;;;;;;5309641;26;20005;-55
2024/04/22 03:21:26;;;;;;;0.10;0.10;;;;;;;;;;5299669;26;20028;-59
2024/04/22 03:23:52;;;;;;;1.40;0.10;;;;;;;;;;5308881;26;20030;-59
2024/04/22 03:26:19;;;;;;;1.45;0.35;;;;;;;;;;5311335;26;20167;-60
2024/04/22 03:28:45;;;;;;;0.28;0.10;;;;;;;;;;5311544;26;20002;-61
2024/04/22 03:31:12;;;;;;;0.00;0.00;;;;;;;;;;5303544;26;20090;-59
2024/04/22 03:33:39;;;;;;;0.77;0.00;;;;;;;;;;5313946;26;20012;-62
2024/04/22 03:36:06;;;;;;;0.10;0.08;;;;;;;;;;5315537;26;20010;-58
2024/04/22 03:38:32;;;;;;;0.00;0.00;;;;;;;;;;5314084;26;20017;-59
2024/04/22 03:40:59;;;;;;;0.45;0.15;;;;;;;;;;5315861;26;20004;-58
2024/04/22 03:43:25;;;;;;;0.00;0.00;;;;;;;;;;5313815;26;20328;-61
2024/04/22 03:51:22;;;;;;;0.82;0.10;;;;;;;;;;5311406;26;20469;-60
2024/04/22 03:53:49;;;;;;;0.17;0.10;;;;;;;;;;5312849;26;20212;-56
2024/04/22 03:56:16;;;;;;;0.20;0.10;;;;;;;;;;5315290;26;20013;-57
2024/04/22 03:58:43;;;;;;;0.20;0.10;;;;;;;;;;5310674;26;20013;-61
2024/04/22 04:01:10;;;;;;;2.30;0.13;;;;;;;;;;5312908;26;20023;-57
2024/04/22 04:03:36;;;;;;;0.30;0.30;;;;;;;;;;5311742;26;20009;-58
2024/04/22 04:06:03;;;;;;;3.60;0.10;;;;;;;;;;5311706;26;20493;-56
2024/04/22 04:08:29;;;;;;;0.03;0.03;;;;;;;;;;5307601;26;19997;-57
2024/04/22 04:11:00;;;;;;;0.10;0.10;;;;;;;;;;5310806;26;20001;-59
2024/04/22 04:13:27;;;;;;;0.03;0.00;;;;;;;;;;5309883;26;20009;-60
2024/04/22 04:15:54;;;;;;;0.35;0.10;;;;;;;;;;5310064;26;20001;-62
2024/04/22 04:18:20;;;;;;;1.27;0.20;;;;;;;;;;5281776;26;20013;-56
2024/04/22 04:20:47;;;;;;;1.42;0.50;;;;;;;;;;5312347;26;20019;-57
2024/04/22 04:23:13;;;;;;;2.03;0.13;;;;;;;;;;5280933;26;20307;-59
2024/04/22 04:25:40;;;;;;;4.28;0.38;;;;;;;;;;5310445;26;20327;-59
2024/04/22 04:28:07;;;;;;;0.52;0.13;;;;;;;;;;5310149;26;20005;-60
2024/04/22 04:30:33;;;;;;;0.20;0.10;;;;;;;;;;5306394;26;20008;-56
2024/04/22 04:33:00;;;;;;;0.98;0.05;;;;;;;;;;5315014;26;20095;-62
2024/04/22 04:35:27;;;;;;;0.30;0.28;;;;;;;;;;5312409;26;20436;-58
2024/04/22 04:37:53;;;;;;;1.67;0.22;;;;;;;;;;5311124;26;20483;-58
2024/04/22 04:40:20;;;;;;;0.43;0.35;;;;;;;;;;5310946;26;20089;-60
2024/04/22 04:42:47;;;;;;;0.20;0.10;;;;;;;;;;5312532;26;20012;-58
2024/04/22 04:45:13;;;;;;;0.00;0.00;;;;;;;;;;5311602;26;20013;-62
2024/04/22 04:47:40;;;;;;;2.10;0.15;;;;;;;;;;5317694;26;20361;-57
2024/04/22 04:50:07;;;;;;;0.52;0.15;;;;;;;;;;5299843;26;20023;-58
2024/04/22 04:52:33;;;;;;;8.25;0.50;;;;;;;;;;5294513;26;20009;-54
2024/04/22 04:55:00;;;;;;;0.63;0.25;;;;;;;;;;5328110;26;20001;-61
2024/04/22 04:57:26;;;;;;;0.38;0.20;;;;;;;;;;5329645;26;20016;-63
2024/04/22 04:59:53;;;;;;;1.45;0.10;;;;;;;;;;5326905;26;20001;-57
2024/04/22 05:02:20;;;;;;;0.63;0.13;;;;;;;;;;5324307;26;20729;-58
2024/04/22 05:04:48;;;;;;;1.70;0.08;;;;;;;;;;5292727;26;20013;-58
2024/04/22 05:07:14;;;;;;;0.80;0.10;;;;;;;;;;5285167;26;20001;-57
2024/04/22 05:09:41;;;;;;;1.15;0.10;;;;;;;;;;5312991;26;20015;-57
2024/04/22 05:12:08;;;;;;;9.48;0.50;;;;;;;;;;5280326;26;20410;-60
2024/04/22 05:14:34;;;;;;;1.52;0.40;;;;;;;;;;5311800;26;20211;-59
2024/04/22 05:17:01;;;;;;;0.65;0.20;;;;;;;;;;5314654;26;20414;-58
2024/04/22 05:19:28;;;;;;;0.47;0.15;;;;;;;;;;5312451;26;20076;-57
2024/04/22 05:21:55;;;;;;;0.40;0.20;;;;;;;;;;5311891;26;20358;-59
2024/04/22 05:24:22;;;;;;;0.08;0.08;;;;;;;;;;5308550;26;20627;-58
2024/04/22 05:27:08;;;;;;;0.10;0.10;;;;;;;;;;5287917;26;20200;-59
2024/04/22 05:29:35;;;;;;;0.10;0.10;;;;;;;;;;5274548;26;20045;-59
2024/04/22 05:32:02;;;;;;;0.00;0.00;;;;;;;;;;5288894;26;19998;-58
2024/04/22 05:37:13;;;;;;;0.20;0.10;;;;;;;;;;5286533;26;20013;-62
2024/04/22 05:39:41;;;;;;;2.97;0.20;;;;;;;;;;5285344;26;20013;-60
2024/04/22 05:42:08;;;;;;;0.05;0.00;;;;;;;;;;5286600;26;20077;-58
2024/04/22 05:44:35;;;;;;;0.10;0.08;;;;;;;;;;5285079;26;20056;-59
2024/04/22 05:47:01;;;;;;;0.10;0.08;;;;;;;;;;5287032;26;20001;-60
2024/04/22 05:49:28;;;;;;;0.43;0.00;;;;;;;;;;5283706;26;20084;-60
2024/04/22 05:51:55;;;;;;;0.00;0.00;;;;;;;;;;5286112;26;20423;-60
2024/04/22 05:54:22;;;;;;;0.10;0.10;;;;;;;;;;5286371;27;20006;-57
2024/04/22 05:56:49;;;;;;;0.10;0.00;;;;;;;;;;5284752;26;20016;-60
2024/04/22 05:59:16;;;;;;;0.00;0.00;;;;;;;;;;5285740;26;20458;-61
2024/04/22 06:01:42;;;;;;;0.55;0.00;;;;;;;;;;5275657;26;20006;-59
2024/04/22 06:04:12;;;;;;;0.10;0.10;;;;;;;;;;5292026;26;20013;-59
2024/04/22 06:06:39;;;;;;;0.08;0.00;;;;;;;;;;5307690;26;20005;-58
2024/04/22 06:09:25;;;;;;;0.20;0.10;;;;;;;;;;5300518;26;20034;-58
2024/04/22 06:11:52;;;;;;;0.00;0.00;;;;;;;;;;5303637;26;20001;-61
2024/04/22 06:14:18;;;;;;;0.10;0.00;;;;;;;;;;5301286;26;20049;-58
2024/04/22 06:16:48;;;;;;;0.43;0.10;;;;;;;;;;5300096;26;20042;-60
2024/04/22 06:19:15;;;;;;;0.08;0.08;;;;;;;;;;5301140;26;20339;-62
2024/04/22 06:21:41;;;;;;;0.05;0.00;;;;;;;;;;5279703;26;20520;-58
2024/04/22 06:24:08;;;;;;;0.08;0.00;;;;;;;;;;5303160;26;20128;-57
2024/04/22 06:26:35;;;;;;;0.22;0.10;;;;;;;;;;5301706;26;20049;-60
2024/04/22 06:29:01;;;;;;;2.58;0.20;;;;;;;;;;5299897;26;20078;-58
2024/04/22 06:31:29;;;;;;;1.10;0.10;;;;;;;;;;5304024;26;19997;-60
2024/04/22 06:33:56;;;;;;;1.65;0.10;;;;;;;;;;5305408;26;20059;-58
2024/04/22 06:36:22;;;;;;;2.38;0.00;;;;;;;;;;5289684;26;20001;-59
2024/04/22 06:38:49;;;;;;;0.85;0.10;;;;;;;;;;5300366;26;20457;-57
2024/04/22 06:41:16;;;;;;;0.00;0.00;;;;;;;;;;5301271;26;20090;-56
2024/04/22 06:43:43;;;;;;;0.10;0.10;;;;;;;;;;5300458;26;20012;-60
2024/04/22 06:46:10;;;;;;;0.10;0.00;;;;;;;;;;5305842;26;20346;-58
2024/04/22 06:48:37;;;;;;;0.00;0.00;;;;;;;;;;5309651;26;20008;-59
2024/04/22 06:51:03;;;;;;;0.52;0.10;;;;;;;;;;5310911;26;20700;-57
2024/04/22 06:53:31;;;;;;;0.00;0.00;;;;;;;;;;5307523;26;20001;-57
2024/04/22 06:55:58;;;;;;;0.00;0.00;;;;;;;;;;5306820;26;20055;-58
2024/04/22 06:58:24;;;;;;;0.20;0.00;;;;;;;;;;5305878;26;20078;-59
2024/04/22 07:00:51;;;;;;;0.03;0.03;;;;;;;;;;5275774;26;20010;-60
2024/04/22 07:03:17;;;;;;;0.05;0.05;;;;;;;;;;5307604;26;20025;-57
2024/04/22 07:05:44;;;;;;;0.90;0.20;;;;;;;;;;5307621;26;20014;-57
2024/04/22 07:08:11;;;;;;;0.00;0.00;;;;;;;;;;5307079;26;20009;-57
2024/04/22 07:10:37;;;;;;;0.00;0.00;;;;;;;;;;5287441;26;20005;-59
2024/04/22 07:13:04;;;;;;;0.00;0.00;;;;;;;;;;5308825;26;20001;-60
2024/04/22 07:15:31;;;;;;;0.00;0.00;;;;;;;;;;5306824;26;20021;-59
2024/04/22 07:17:57;;;;;;;2.83;0.10;;;;;;;;;;5305952;26;20083;-57
2024/04/22 07:20:24;;;;;;;0.00;0.00;;;;;;;;;;5312940;26;20013;-61
2024/04/22 07:22:51;;;;;;;0.00;0.00;;;;;;;;;;5312000;26;19998;-57
2024/04/22 07:25:17;;;;;;;0.00;0.00;;;;;;;;;;5314727;26;19994;-60
2024/04/22 07:27:44;;;;;;;0.00;0.00;;;;;;;;;;5321078;26;20005;-59
2024/04/22 07:30:11;;;;;;;0.20;0.20;;;;;;;;;;5322763;26;20072;-59
2024/04/22 07:32:58;;;;;;;0.30;0.20;;;;;;;;;;5267123;27;20002;-57
2024/04/22 07:35:24;;;;;;;0.00;0.00;;;;;;;;;;5237679;27;20467;-57
2024/04/22 07:37:52;;;;;;;0.00;0.00;;;;;;;;;;5256694;27;20510;-57
2024/04/22 07:40:20;;;;;;;1.90;0.10;;;;;;;;;;5257581;27;20021;-58
2024/04/22 07:42:47;;;;;;;0.25;0.20;;;;;;;;;;5258545;27;20021;-55
2024/04/22 07:45:16;;;;;;;0.00;0.00;;;;;;;;;;5258101;27;20010;-59
2024/04/22 07:47:43;;;;;;;0.00;0.00;;;;;;;;;;5257646;27;20019;-58
2024/04/22 07:50:10;;;;;;;0.10;0.10;;;;;;;;;;5257040;27;20065;-57
2024/04/22 07:52:37;;;;;;;0.00;0.00;;;;;;;;;;5256691;27;20013;-58
2024/04/22 07:55:04;;;;;;;0.00;0.00;;;;;;;;;;5258456;27;20006;-55
2024/04/22 07:57:31;;;;;;;0.22;0.10;;;;;;;;;;5258206;27;20061;-63
2024/04/22 07:59:58;;;;;;;0.00;0.00;;;;;;;;;;5257441;27;22404;-57
2024/04/22 08:02:25;;;;;;;0.00;0.00;;;;;;;;;;5257177;27;20010;-57
2024/04/22 08:04:52;;;;;;;0.00;0.00;;;;;;;;;;5290759;27;20001;-58
2024/04/22 08:07:19;;;;;;;0.00;0.00;;;;;;;;;;5292261;26;20079;-59
2024/04/22 08:09:46;;;;;;;0.00;0.00;;;;;;;;;;5303223;26;20004;-59
2024/04/22 08:12:13;;;;;;;0.00;0.00;;;;;;;;;;5319331;26;20004;-58
2024/04/22 08:14:42;;;;;;;6.93;0.40;;;;;;;;;;5342557;26;20011;-55
2024/04/22 08:17:09;;;;;;;2.10;0.10;;;;;;;;;;5341445;26;20024;-60
2024/04/22 08:19:37;;;;;;;0.00;0.00;;;;;;;;;;5337273;26;20357;-58
2024/04/22 08:22:05;;;;;;;0.10;0.00;;;;;;;;;;5341215;26;19996;-57
2024/04/22 08:24:51;;;;;;;0.10;0.10;;;;;;;;;;5340463;26;20014;-58
2024/04/22 08:27:18;;;;;;;0.10;0.05;;;;;;;;;;5309143;26;20059;-58
2024/04/22 08:29:44;;;;;;;0.00;0.00;;;;;;;;;;5303142;26;20049;-58
2024/04/22 08:32:11;;;;;;;4.18;0.28;;;;;;;;;;5311007;26;20044;-58
2024/04/22 08:34:38;;;;;;;0.85;0.00;;;;;;;;;;5308737;26;20013;-58
2024/04/22 08:37:06;;;;;;;0.00;0.00;;;;;;;;;;5263082;26;20006;-56
2024/04/22 08:39:32;;;;;;;0.10;0.10;;;;;;;;;;5275579;26;20165;-59
2024/04/22 08:42:00;;;;;;;0.77;0.10;;;;;;;;;;5279978;26;21037;-59
2024/04/22 08:44:27;;;;;;;0.52;0.10;;;;;;;;;;5274135;26;20010;-57
2024/04/22 08:46:53;;;;;;;0.70;0.10;;;;;;;;;;5278190;26;20005;-59
2024/04/22 08:49:20;;;;;;;0.22;0.13;;;;;;;;;;5276513;26;20006;-58
2024/04/22 08:51:47;;;;;;;0.00;0.00;;;;;;;;;;5277013;26;20025;-57
2024/04/22 08:54:13;;;;;;;3.92;0.20;;;;;;;;;;5274611;26;20049;-58
2024/04/22 08:56:40;;;;;;;1.00;0.08;;;;;;;;;;5274817;26;19998;-58
2024/04/22 08:59:07;;;;;;;0.10;0.10;;;;;;;;;;5300200;26;20015;-58
2024/04/22 09:01:33;;;;;;;0.00;0.00;;;;;;;;;;5314151;26;20021;-57
2024/04/22 09:04:00;;;;;;;0.20;0.20;;;;;;;;;;5312310;26;20001;-58
2024/04/22 09:06:27;;;;;;;0.30;0.03;;;;;;;;;;5279543;26;20010;-58
2024/04/22 09:08:56;;;;;;;1.17;0.17;;;;;;;;;;5312544;26;20458;-54
2024/04/22 09:11:22;;;;;;;1.10;0.10;;;;;;;;;;5311217;26;20001;-67
2024/04/22 09:13:58;;;;;;;0.20;0.20;;;;;;;;;;5311236;26;20036;-57
2024/04/22 09:16:25;;;;;;;1.20;0.47;;;;;;;;;;5313193;26;20025;-58
2024/04/22 09:18:52;;;;;;;0.05;0.05;;;;;;;;;;5313859;26;20013;-57
2024/04/22 09:21:18;;;;;;;0.00;0.00;;;;;;;;;;5294997;26;20517;-59
2024/04/22 09:23:45;;;;;;;0.00;0.00;;;;;;;;;;5313576;26;20437;-58
2024/04/22 09:26:12;;;;;;;0.03;0.03;;;;;;;;;;5314982;26;20016;-60
2024/04/22 09:28:39;;;;;;;1.30;0.00;;;;;;;;;;5300903;26;20006;-58
2024/04/22 09:31:05;;;;;;;0.00;0.00;;;;;;;;;;5285391;26;20008;-56
2024/04/22 09:33:35;;;;;;;0.10;0.10;;;;;;;;;;5313997;26;20016;-58
2024/04/22 09:36:03;;;;;;;0.10;0.10;;;;;;;;;;5308989;26;20016;-59
2024/04/22 09:38:33;;;;;;;0.10;0.10;;;;;;;;;;5308430;26;20458;-61
2024/04/22 09:41:04;;;;;;;0.10;0.10;;;;;;;;;;5316087;26;20075;-58
2024/04/22 09:43:36;;;;;;;0.10;0.10;;;;;;;;;;5311625;26;20004;-57
2024/04/22 09:46:03;;;;;;;0.05;0.05;;;;;;;;;;5316085;26;19997;-57
2024/04/22 09:48:30;;;;;;;0.20;0.10;;;;;;;;;;5292777;26;20083;-59
2024/04/22 09:51:03;;;;;;;3.63;0.20;;;;;;;;;;5314450;26;20005;-60
2024/04/22 09:53:30;;;;;;;4.20;0.10;;;;;;;;;;5313937;26;20005;-58
2024/04/22 09:55:59;;;;;;;0.50;0.10;;;;;;;;;;5282167;26;20455;-57
2024/04/22 09:58:26;;;;;;;0.30;0.10;;;;;;;;;;5310584;26;20021;-58
2024/04/22 10:00:53;;;;;;;0.10;0.10;;;;;;;;;;5317288;26;20019;-59
2024/04/22 10:03:19;;;;;;;1.35;0.20;;;;;;;;;;5314368;26;20079;-58
2024/04/22 10:05:46;;;;;;;1.45;0.00;;;;;;;;;;5315329;26;19996;-57
2024/04/22 10:08:13;;;;;;;0.28;0.28;;;;;;;;;;5312302;26;20079;-57
2024/04/22 10:10:43;;;;;;;0.30;0.10;;;;;;;;;;5312457;26;20009;-58
2024/04/22 10:13:12;;;;;;;1.25;0.10;;;;;;;;;;5315419;26;20543;-56
2024/04/22 10:15:39;;;;;;;3.55;0.43;;;;;;;;;;5314916;26;20530;-58
2024/04/22 10:18:15;;;;;;;3.83;0.22;;;;;;;;;;5313955;26;20056;-58
2024/04/22 10:20:42;;;;;;;4.38;0.82;;;;;;;;;;5308792;26;19997;-60
2024/04/22 10:23:09;;;;;;;2.05;0.10;;;;;;;;;;5316503;26;20001;-59
2024/04/22 10:25:35;;;;;;;0.10;0.10;;;;;;;;;;5315829;26;20008;-57
2024/04/22 10:28:02;;;;;;;8.13;0.32;;;;;;;;;;5311105;26;20000;-58
2024/04/22 10:30:35;;;;;;;0.00;0.00;;;;;;;;;;5318336;26;20009;-58
2024/04/22 10:33:02;;;;;;;3.67;0.17;;;;;;;;;;5320699;26;20001;-60
2024/04/22 10:35:29;;;;;;;0.28;0.22;;;;;;;;;;5317257;26;20412;-60
2024/04/22 10:37:56;;;;;;;0.20;0.03;;;;;;;;;;5315430;26;20001;-57
2024/04/22 10:40:24;;;;;;;0.00;0.00;;;;;;;;;;5316977;26;20004;-57
2024/04/22 10:42:51;;;;;;;2.40;0.10;;;;;;;;;;5315918;26;20137;-58
2024/04/22 10:45:18;;;;;;;0.10;0.10;;;;;;;;;;5313061;26;20342;-57
2024/04/22 10:47:44;;;;;;;0.65;0.10;;;;;;;;;;5315535;26;20008;-59
2024/04/22 10:50:14;;;;;;;0.35;0.00;;;;;;;;;;5322756;26;20024;-59
2024/04/22 10:52:41;;;;;;;0.08;0.00;;;;;;;;;;5317605;26;20037;-58
2024/04/22 10:55:08;;;;;;;0.40;0.13;;;;;;;;;;5322602;26;20009;-59
2024/04/22 10:57:43;;;;;;;1.60;0.10;;;;;;;;;;5319834;26;20013;-61
2024/04/22 11:00:10;;;;;;;2.80;0.20;;;;;;;;;;5320406;26;20009;-58
2024/04/22 11:02:37;;;;;;;0.00;0.00;;;;;;;;;;5318801;26;20005;-59
2024/04/22 11:05:04;;;;;;;0.10;0.10;;;;;;;;;;5318388;26;20519;-59
2024/04/22 11:07:30;;;;;;;0.05;0.05;;;;;;;;;;5286104;26;20033;-58
2024/04/22 11:10:00;;;;;;;0.20;0.10;;;;;;;;;;5318041;26;20017;-58
2024/04/22 11:12:28;;;;;;;1.02;0.17;;;;;;;;;;5312982;26;20005;-59
2024/04/22 11:14:57;;;;;;;0.38;0.38;;;;;;;;;;5315219;26;20340;-60
2024/04/22 11:17:24;;;;;;;3.90;0.28;;;;;;;;;;5274164;26;20007;-60
2024/04/22 11:19:51;;;;;;;0.22;0.17;;;;;;;;;;5314826;26;20789;-56
2024/04/22 11:22:20;;;;;;;0.00;0.00;;;;;;;;;;5313006;26;20078;-57
2024/04/22 11:24:47;;;;;;;0.52;0.05;;;;;;;;;;5319353;26;20000;-60
2024/04/22 11:27:14;;;;;;;2.33;0.10;;;;;;;;;;5320558;26;20008;-61
2024/04/22 11:29:41;;;;;;;1.17;0.10;;;;;;;;;;5323905;26;20009;-59
2024/04/22 11:32:08;;;;;;;0.40;0.17;;;;;;;;;;5340440;26;20049;-55
2024/04/22 11:34:35;;;;;;;0.10;0.10;;;;;;;;;;5312714;26;20071;-58
2024/04/22 11:37:02;;;;;;;0.22;0.10;;;;;;;;;;5314410;26;20015;-58
2024/04/22 11:39:29;;;;;;;0.45;0.22;;;;;;;;;;5313598;26;20009;-58
2024/04/22 11:41:56;;;;;;;3.13;0.20;;;;;;;;;;5310115;26;20023;-58
2024/04/22 11:44:23;;;;;;;2.28;0.30;;;;;;;;;;5311727;26;20017;-59
2024/04/22 11:46:50;;;;;;;0.28;0.10;;;;;;;;;;5316901;26;20016;-59
2024/04/22 11:49:17;;;;;;;0.30;0.10;;;;;;;;;;5313990;26;20111;-56
2024/04/22 11:51:44;;;;;;;0.57;0.20;;;;;;;;;;5310149;26;20001;-59
2024/04/22 11:54:11;;;;;;;0.15;0.10;;;;;;;;;;5312760;26;20037;-59
2024/04/22 11:56:40;;;;;;;3.95;0.40;;;;;;;;;;5312381;26;20005;-58
2024/04/22 11:59:07;;;;;;;3.58;0.30;;;;;;;;;;5308478;26;20458;-57
2024/04/22 12:01:34;;;;;;;2.13;0.15;;;;;;;;;;5313462;26;20452;-56
2024/04/22 12:04:01;;;;;;;1.85;0.10;;;;;;;;;;5313217;26;20006;-58
2024/04/22 12:06:28;;;;;;;0.43;0.25;;;;;;;;;;5312726;26;20010;-60
2024/04/22 12:08:55;;;;;;;0.10;0.10;;;;;;;;;;5314509;26;20049;-60
2024/04/22 12:11:21;;;;;;;0.00;0.00;;;;;;;;;;5311113;26;20020;-60
2024/04/22 12:13:48;;;;;;;2.53;0.28;;;;;;;;;;5312640;26;20046;-53
2024/04/22 12:16:15;;;;;;;0.90;0.20;;;;;;;;;;5313619;26;20509;-60
2024/04/22 12:18:41;;;;;;;3.72;0.35;;;;;;;;;;5311374;26;20028;-61
2024/04/22 12:21:08;;;;;;;0.38;0.30;;;;;;;;;;5312463;26;20099;-59
2024/04/22 12:23:35;;;;;;;1.48;0.60;;;;;;;;;;5313332;26;20418;-60
2024/04/22 12:26:01;;;;;;;1.02;0.50;;;;;;;;;;5312497;26;20024;-59
2024/04/22 12:28:48;;;;;;;0.68;0.25;;;;;;;;;;5274477;26;20023;-59
2024/04/22 12:31:15;;;;;;;1.13;0.40;;;;;;;;;;5274277;26;20010;-60
2024/04/22 12:33:41;;;;;;;1.75;0.30;;;;;;;;;;5276601;26;20006;-59
2024/04/22 12:36:08;;;;;;;0.77;0.40;;;;;;;;;;5274078;26;20084;-61
2024/04/22 12:38:35;;;;;;;0.82;0.55;;;;;;;;;;5272679;26;20009;-61
2024/04/22 12:41:02;;;;;;;0.55;0.40;;;;;;;;;;5270940;26;21888;-56
2024/04/22 12:43:28;;;;;;;0.55;0.22;;;;;;;;;;5272882;26;20083;-60
2024/04/22 12:45:55;;;;;;;3.10;0.32;;;;;;;;;;5276802;26;20077;-60
2024/04/22 12:51:08;;;;;;;1.55;0.40;;;;;;;;;;5272215;26;20802;-60
2024/04/22 12:53:35;;;;;;;9.75;0.63;;;;;;;;;;5270641;26;21101;-58
2024/04/22 12:56:03;;;;;;;3.03;1.25;;;;;;;;;;5271522;26;20007;-61
2024/04/22 12:58:30;;;;;;;2.85;0.40;;;;;;;;;;5270751;27;20042;-60
2024/04/22 13:00:56;;;;;;;3.95;0.70;;;;;;;;;;5270634;27;20176;-63
2024/04/22 13:03:23;;;;;;;0.40;0.40;;;;;;;;;;5272012;27;20439;-61
2024/04/22 13:05:49;;;;;;;3.17;0.60;;;;;;;;;;5282694;26;21172;-56
2024/04/22 13:08:16;;;;;;;2.85;0.82;;;;;;;;;;5308089;26;20071;-59
2024/04/22 13:10:43;;;;;;;4.05;1.02;;;;;;;;;;5306358;26;20037;-58
2024/04/22 13:13:09;;;;;;;1.73;0.93;;;;;;;;;;5310970;26;20013;-59
2024/04/22 13:15:36;;;;;;;0.85;0.60;;;;;;;;;;5308304;26;20003;-56
2024/04/22 13:18:03;;;;;;;0.47;0.45;;;;;;;;;;5307218;26;20005;-61
2024/04/22 13:20:29;;;;;;;1.13;0.77;;;;;;;;;;5309011;26;20015;-58
2024/04/22 13:22:56;;;;;;;1.45;0.60;;;;;;;;;;5292242;26;20052;-64
2024/04/22 13:25:23;;;;;;;4.70;0.80;;;;;;;;;;5305695;26;20040;-59
2024/04/22 13:27:50;;;;;;;3.22;0.60;;;;;;;;;;5307941;26;20013;-58
2024/04/22 13:30:16;;;;;;;0.60;0.50;;;;;;;;;;5312619;26;19996;-61
2024/04/22 13:32:45;;;;;;;3.15;0.88;;;;;;;;;;5250392;26;20001;-61
2024/04/22 13:35:12;;;;;;;4.75;0.68;;;;;;;;;;5311805;26;20468;-59
2024/04/22 13:37:39;;;;;;;0.60;0.50;;;;;;;;;;5288233;26;20020;-60
2024/04/22 13:40:07;;;;;;;1.60;0.82;;;;;;;;;;5306996;26;20473;-58
2024/04/22 13:42:34;;;;;;;1.05;0.52;;;;;;;;;;5279125;26;20028;-61
2024/04/22 13:45:01;;;;;;;2.38;0.60;;;;;;;;;;5280436;26;20046;-60
2024/04/22 13:47:27;;;;;;;3.15;0.85;;;;;;;;;;5297270;26;20009;-59
2024/04/22 13:49:54;;;;;;;2.47;0.90;;;;;;;;;;5309207;26;20073;-58
2024/04/22 13:52:21;;;;;;;0.80;0.70;;;;;;;;;;5310661;26;20626;-62
2024/04/22 13:54:47;;;;;;;1.42;0.88;;;;;;;;;;5308930;26;20073;-58
2024/04/22 13:57:14;;;;;;;3.45;0.98;;;;;;;;;;5307879;26;19997;-60
2024/04/22 13:59:41;;;;;;;3.88;1.02;;;;;;;;;;5307417;26;20006;-61
2024/04/22 14:02:07;;;;;;;2.88;0.65;;;;;;;;;;5276705;26;20448;-57
2024/04/22 14:04:34;;;;;;;6.32;1.00;;;;;;;;;;5306256;26;20387;-58
2024/04/22 14:07:01;;;;;;;5.68;1.00;;;;;;;;;;5308340;26;20019;-61
2024/04/22 14:09:27;;;;;;;3.05;0.77;;;;;;;;;;5308480;26;20366;-63
2024/04/22 14:11:54;;;;;;;0.75;0.57;;;;;;;;;;5305402;26;20083;-58
2024/04/22 14:14:21;;;;;;;7.40;1.00;;;;;;;;;;5269703;26;20008;-60
2024/04/22 14:16:48;;;;;;;1.85;0.73;;;;;;;;;;5302546;26;20016;-58
2024/04/22 14:19:15;;;;;;;0.95;0.57;;;;;;;;;;5275499;26;20464;-59
2024/04/22 14:21:41;;;;;;;3.72;1.33;;;;;;;;;;5303973;26;20027;-58
2024/04/22 14:24:08;;;;;;;2.65;0.85;;;;;;;;;;5274325;26;20005;-59
2024/04/22 14:26:35;;;;;;;2.13;1.05;;;;;;;;;;5308364;26;20017;-60
2024/04/22 14:29:01;;;;;;;2.58;1.10;;;;;;;;;;5307755;26;20009;-60
2024/04/22 14:31:28;;;;;;;4.28;1.00;;;;;;;;;;5302596;26;20038;-60
2024/04/22 14:33:57;;;;;;;1.20;0.80;;;;;;;;;;5306770;26;19997;-61
2024/04/22 14:36:24;;;;;;;2.65;0.80;;;;;;;;;;5304049;26;20372;-60
2024/04/22 14:38:50;;;;;;;1.20;0.75;;;;;;;;;;5306561;26;22699;-61
2024/04/22 14:41:37;;;;;;;1.45;0.57;;;;;;;;;;5307510;26;20000;-60
2024/04/22 14:44:03;;;;;;;1.13;0.75;;;;;;;;;;5216736;27;20067;-61
2024/04/22 14:46:30;;;;;;;1.20;0.80;;;;;;;;;;5233659;26;20022;-59
2024/04/22 14:48:57;;;;;;;4.55;1.10;;;;;;;;;;5233417;26;20011;-59
2024/04/22 14:51:24;;;;;;;6.13;0.85;;;;;;;;;;5236013;26;20426;-61
2024/04/22 14:53:51;;;;;;;1.30;0.70;;;;;;;;;;5238585;26;20006;-60